sensor_id;sensor_type;location;lat;lon;timestamp;P1;durP1;ratioP1;P2;durP2;ratioP2
13079;SDS011;6606;49.154;9.280;2022-11-20T00:02:09;24.10;;;16.10;;
13079;SDS011;6606;49.154;9.280;2022-11-20T00:04:35;20.27;;;13.33;;
13079;SDS011;6606;49.154;9.280;2022-11-20T00:07:03;16.83;;;12.33;;
13079;SDS011;6606;49.154;9.280;2022-11-20T00:09:30;23.10;;;14.00;;
13079;SDS011;6606;49.154;9.280;2022-11-20T00:11:57;17.67;;;12.63;;
13079;SDS011;6606;49.154;9.280;2022-11-20T00:14:24;28.73;;;17.50;;
13079;SDS011;6606;49.154;9.280;2022-11-20T00:16:50;20.67;;;13.47;;
13079;SDS011;6606;49.154;9.280;2022-11-20T00:19:17;14.60;;;10.30;;
13079;SDS011;6606;49.154;9.280;2022-11-20T00:21:44;14.17;;;10.27;;
13079;SDS011;6606;49.154;9.280;2022-11-20T00:24:12;13.27;;;9.90;;
13079;SDS011;6606;49.154;9.280;2022-11-20T00:26:40;12.20;;;9.70;;
13079;SDS011;6606;49.154;9.280;2022-11-20T00:29:08;14.27;;;10.20;;
13079;SDS011;6606;49.154;9.280;2022-11-20T00:31:35;14.13;;;10.00;;
13079;SDS011;6606;49.154;9.280;2022-11-20T00:34:02;14.40;;;9.73;;
13079;SDS011;6606;49.154;9.280;2022-11-20T00:36:32;12.63;;;9.30;;
13079;SDS011;6606;49.154;9.280;2022-11-20T00:39:00;13.60;;;10.23;;
13079;SDS011;6606;49.154;9.280;2022-11-20T00:41:29;14.90;;;10.73;;
13079;SDS011;6606;49.154;9.280;2022-11-20T00:43:56;12.60;;;9.77;;
13079;SDS011;6606;49.154;9.280;2022-11-20T00:46:24;13.93;;;10.60;;
13079;SDS011;6606;49.154;9.280;2022-11-20T00:48:52;13.73;;;10.43;;
13079;SDS011;6606;49.154;9.280;2022-11-20T00:51:19;12.97;;;9.93;;
13079;SDS011;6606;49.154;9.280;2022-11-20T00:53:47;14.77;;;10.37;;
13079;SDS011;6606;49.154;9.280;2022-11-20T00:56:15;13.13;;;9.87;;
13079;SDS011;6606;49.154;9.280;2022-11-20T00:58:45;11.87;;;8.97;;
13079;SDS011;6606;49.154;9.280;2022-11-20T01:01:14;11.60;;;9.07;;
13079;SDS011;6606;49.154;9.280;2022-11-20T01:03:42;14.70;;;10.57;;
13079;SDS011;6606;49.154;9.280;2022-11-20T01:06:10;15.77;;;11.50;;
13079;SDS011;6606;49.154;9.280;2022-11-20T01:08:38;14.83;;;10.67;;
13079;SDS011;6606;49.154;9.280;2022-11-20T01:11:06;15.07;;;10.40;;
13079;SDS011;6606;49.154;9.280;2022-11-20T01:13:34;13.90;;;9.93;;
13079;SDS011;6606;49.154;9.280;2022-11-20T01:16:06;13.10;;;9.47;;
13079;SDS011;6606;49.154;9.280;2022-11-20T01:18:34;14.33;;;10.50;;
13079;SDS011;6606;49.154;9.280;2022-11-20T01:21:02;13.53;;;10.47;;
13079;SDS011;6606;49.154;9.280;2022-11-20T01:23:31;16.60;;;11.30;;
13079;SDS011;6606;49.154;9.280;2022-11-20T01:25:59;13.80;;;10.07;;
13079;SDS011;6606;49.154;9.280;2022-11-20T01:28:27;19.03;;;12.83;;
13079;SDS011;6606;49.154;9.280;2022-11-20T01:30:54;21.13;;;12.67;;
13079;SDS011;6606;49.154;9.280;2022-11-20T01:33:22;18.87;;;12.37;;
13079;SDS011;6606;49.154;9.280;2022-11-20T01:35:49;20.63;;;13.03;;
13079;SDS011;6606;49.154;9.280;2022-11-20T01:38:16;18.43;;;12.50;;
13079;SDS011;6606;49.154;9.280;2022-11-20T01:40:43;20.37;;;13.20;;
13079;SDS011;6606;49.154;9.280;2022-11-20T01:43:12;15.77;;;11.17;;
13079;SDS011;6606;49.154;9.280;2022-11-20T01:45:54;19.83;;;12.57;;
13079;SDS011;6606;49.154;9.280;2022-11-20T01:48:26;17.23;;;11.63;;
13079;SDS011;6606;49.154;9.280;2022-11-20T01:50:58;15.80;;;11.07;;
13079;SDS011;6606;49.154;9.280;2022-11-20T01:53:27;15.73;;;11.83;;
13079;SDS011;6606;49.154;9.280;2022-11-20T01:55:58;17.37;;;11.70;;
13079;SDS011;6606;49.154;9.280;2022-11-20T01:58:28;16.90;;;11.40;;
13079;SDS011;6606;49.154;9.280;2022-11-20T02:00:59;16.70;;;11.30;;
13079;SDS011;6606;49.154;9.280;2022-11-20T02:03:27;15.17;;;11.63;;
13079;SDS011;6606;49.154;9.280;2022-11-20T02:05:55;16.43;;;11.83;;
13079;SDS011;6606;49.154;9.280;2022-11-20T02:08:28;19.23;;;12.00;;
13079;SDS011;6606;49.154;9.280;2022-11-20T02:10:55;15.77;;;11.27;;
13079;SDS011;6606;49.154;9.280;2022-11-20T02:13:22;18.07;;;12.70;;
13079;SDS011;6606;49.154;9.280;2022-11-20T02:16:08;16.37;;;12.00;;
13079;SDS011;6606;49.154;9.280;2022-11-20T02:18:37;17.63;;;12.33;;
13079;SDS011;6606;49.154;9.280;2022-11-20T02:21:06;29.53;;;16.83;;
13079;SDS011;6606;49.154;9.280;2022-11-20T02:23:39;22.67;;;14.90;;
13079;SDS011;6606;49.154;9.280;2022-11-20T02:26:22;21.50;;;14.43;;
13079;SDS011;6606;49.154;9.280;2022-11-20T02:28:52;29.20;;;16.50;;
13079;SDS011;6606;49.154;9.280;2022-11-20T02:31:20;18.70;;;12.60;;
13079;SDS011;6606;49.154;9.280;2022-11-20T02:33:47;17.83;;;12.20;;
13079;SDS011;6606;49.154;9.280;2022-11-20T02:36:14;16.40;;;11.97;;
13079;SDS011;6606;49.154;9.280;2022-11-20T02:38:42;19.03;;;12.97;;
13079;SDS011;6606;49.154;9.280;2022-11-20T02:41:11;21.27;;;14.30;;
13079;SDS011;6606;49.154;9.280;2022-11-20T02:43:38;20.00;;;13.57;;
13079;SDS011;6606;49.154;9.280;2022-11-20T02:46:07;19.30;;;12.80;;
13079;SDS011;6606;49.154;9.280;2022-11-20T02:48:34;20.43;;;12.97;;
13079;SDS011;6606;49.154;9.280;2022-11-20T02:51:01;17.83;;;12.70;;
13079;SDS011;6606;49.154;9.280;2022-11-20T02:53:28;18.93;;;13.20;;
13079;SDS011;6606;49.154;9.280;2022-11-20T02:55:55;21.90;;;13.80;;
13079;SDS011;6606;49.154;9.280;2022-11-20T02:58:23;21.77;;;14.17;;
13079;SDS011;6606;49.154;9.280;2022-11-20T03:00:50;21.60;;;15.10;;
13079;SDS011;6606;49.154;9.280;2022-11-20T03:03:18;23.00;;;14.33;;
13079;SDS011;6606;49.154;9.280;2022-11-20T03:05:44;19.47;;;13.53;;
13079;SDS011;6606;49.154;9.280;2022-11-20T03:08:11;19.40;;;13.13;;
13079;SDS011;6606;49.154;9.280;2022-11-20T03:10:38;16.57;;;11.90;;
13079;SDS011;6606;49.154;9.280;2022-11-20T03:13:04;19.53;;;13.37;;
13079;SDS011;6606;49.154;9.280;2022-11-20T03:15:32;19.83;;;13.50;;
13079;SDS011;6606;49.154;9.280;2022-11-20T03:17:59;18.33;;;12.90;;
13079;SDS011;6606;49.154;9.280;2022-11-20T03:20:26;27.17;;;16.20;;
13079;SDS011;6606;49.154;9.280;2022-11-20T03:22:53;16.73;;;12.53;;
13079;SDS011;6606;49.154;9.280;2022-11-20T03:25:20;19.90;;;13.90;;
13079;SDS011;6606;49.154;9.280;2022-11-20T03:27:47;16.53;;;12.47;;
13079;SDS011;6606;49.154;9.280;2022-11-20T03:30:13;17.53;;;12.87;;
13079;SDS011;6606;49.154;9.280;2022-11-20T03:32:42;17.30;;;13.20;;
13079;SDS011;6606;49.154;9.280;2022-11-20T03:35:09;15.40;;;12.20;;
13079;SDS011;6606;49.154;9.280;2022-11-20T03:37:36;16.90;;;12.37;;
13079;SDS011;6606;49.154;9.280;2022-11-20T03:40:03;19.47;;;13.57;;
13079;SDS011;6606;49.154;9.280;2022-11-20T03:42:30;19.13;;;12.73;;
13079;SDS011;6606;49.154;9.280;2022-11-20T03:45:12;18.97;;;12.60;;
13079;SDS011;6606;49.154;9.280;2022-11-20T03:47:39;16.30;;;11.97;;
13079;SDS011;6606;49.154;9.280;2022-11-20T03:50:08;15.10;;;11.37;;
13079;SDS011;6606;49.154;9.280;2022-11-20T03:52:35;15.30;;;11.87;;
13079;SDS011;6606;49.154;9.280;2022-11-20T03:55:02;15.37;;;11.30;;
13079;SDS011;6606;49.154;9.280;2022-11-20T03:57:29;14.30;;;11.03;;
13079;SDS011;6606;49.154;9.280;2022-11-20T03:59:56;13.63;;;10.83;;
13079;SDS011;6606;49.154;9.280;2022-11-20T04:02:23;13.77;;;11.23;;
13079;SDS011;6606;49.154;9.280;2022-11-20T04:04:49;15.57;;;11.43;;
13079;SDS011;6606;49.154;9.280;2022-11-20T04:07:17;12.63;;;10.47;;
13079;SDS011;6606;49.154;9.280;2022-11-20T04:09:44;11.60;;;9.33;;
13079;SDS011;6606;49.154;9.280;2022-11-20T04:12:11;13.60;;;10.20;;
13079;SDS011;6606;49.154;9.280;2022-11-20T04:14:38;12.87;;;9.90;;
13079;SDS011;6606;49.154;9.280;2022-11-20T04:17:04;12.60;;;9.07;;
13079;SDS011;6606;49.154;9.280;2022-11-20T04:19:31;14.37;;;9.70;;
13079;SDS011;6606;49.154;9.280;2022-11-20T04:21:58;10.97;;;8.83;;
13079;SDS011;6606;49.154;9.280;2022-11-20T04:24:26;10.90;;;8.73;;
13079;SDS011;6606;49.154;9.280;2022-11-20T04:26:52;11.07;;;8.73;;
13079;SDS011;6606;49.154;9.280;2022-11-20T04:29:19;12.37;;;8.50;;
13079;SDS011;6606;49.154;9.280;2022-11-20T04:31:46;10.43;;;8.87;;
13079;SDS011;6606;49.154;9.280;2022-11-20T04:34:13;13.00;;;8.30;;
13079;SDS011;6606;49.154;9.280;2022-11-20T04:36:40;10.23;;;7.53;;
13079;SDS011;6606;49.154;9.280;2022-11-20T04:39:11;10.70;;;7.07;;
13079;SDS011;6606;49.154;9.280;2022-11-20T04:41:42;9.27;;;7.43;;
13079;SDS011;6606;49.154;9.280;2022-11-20T04:44:09;9.57;;;7.77;;
13079;SDS011;6606;49.154;9.280;2022-11-20T04:46:36;7.93;;;6.97;;
13079;SDS011;6606;49.154;9.280;2022-11-20T04:49:05;8.90;;;6.33;;
13079;SDS011;6606;49.154;9.280;2022-11-20T04:51:32;8.73;;;7.23;;
13079;SDS011;6606;49.154;9.280;2022-11-20T04:53:59;8.00;;;6.83;;
13079;SDS011;6606;49.154;9.280;2022-11-20T04:56:26;7.17;;;6.43;;
13079;SDS011;6606;49.154;9.280;2022-11-20T04:58:54;7.53;;;6.50;;
13079;SDS011;6606;49.154;9.280;2022-11-20T05:01:22;9.13;;;6.63;;
13079;SDS011;6606;49.154;9.280;2022-11-20T05:03:50;12.43;;;6.40;;
13079;SDS011;6606;49.154;9.280;2022-11-20T05:06:18;8.27;;;5.90;;
13079;SDS011;6606;49.154;9.280;2022-11-20T05:08:46;6.93;;;5.70;;
13079;SDS011;6606;49.154;9.280;2022-11-20T05:11:14;7.03;;;5.63;;
13079;SDS011;6606;49.154;9.280;2022-11-20T05:13:43;6.77;;;5.23;;
13079;SDS011;6606;49.154;9.280;2022-11-20T05:16:11;7.20;;;5.03;;
13079;SDS011;6606;49.154;9.280;2022-11-20T05:18:40;6.90;;;5.10;;
13079;SDS011;6606;49.154;9.280;2022-11-20T05:21:08;7.17;;;5.13;;
13079;SDS011;6606;49.154;9.280;2022-11-20T05:23:36;6.13;;;4.83;;
13079;SDS011;6606;49.154;9.280;2022-11-20T05:26:04;6.40;;;5.23;;
13079;SDS011;6606;49.154;9.280;2022-11-20T05:28:31;6.90;;;4.40;;
13079;SDS011;6606;49.154;9.280;2022-11-20T05:31:03;8.13;;;5.57;;
13079;SDS011;6606;49.154;9.280;2022-11-20T05:33:33;16.77;;;12.23;;
13079;SDS011;6606;49.154;9.280;2022-11-20T05:36:00;16.43;;;12.30;;
13079;SDS011;6606;49.154;9.280;2022-11-20T05:38:27;20.80;;;12.60;;
13079;SDS011;6606;49.154;9.280;2022-11-20T05:40:54;15.63;;;11.80;;
13079;SDS011;6606;49.154;9.280;2022-11-20T05:43:20;15.67;;;12.00;;
13079;SDS011;6606;49.154;9.280;2022-11-20T05:45:54;17.43;;;12.97;;
13079;SDS011;6606;49.154;9.280;2022-11-20T05:48:21;16.17;;;11.60;;
13079;SDS011;6606;49.154;9.280;2022-11-20T05:50:49;16.90;;;12.70;;
13079;SDS011;6606;49.154;9.280;2022-11-20T05:53:16;16.70;;;12.77;;
13079;SDS011;6606;49.154;9.280;2022-11-20T05:55:43;15.83;;;12.23;;
13079;SDS011;6606;49.154;9.280;2022-11-20T05:58:10;14.50;;;10.67;;
13079;SDS011;6606;49.154;9.280;2022-11-20T06:00:36;13.47;;;10.80;;
13079;SDS011;6606;49.154;9.280;2022-11-20T06:03:04;17.47;;;12.10;;
13079;SDS011;6606;49.154;9.280;2022-11-20T06:05:31;11.27;;;8.13;;
13079;SDS011;6606;49.154;9.280;2022-11-20T06:08:01;9.87;;;7.63;;
13079;SDS011;6606;49.154;9.280;2022-11-20T06:10:28;10.33;;;8.73;;
13079;SDS011;6606;49.154;9.280;2022-11-20T06:12:56;10.47;;;8.10;;
13079;SDS011;6606;49.154;9.280;2022-11-20T06:15:23;12.50;;;9.77;;
13079;SDS011;6606;49.154;9.280;2022-11-20T06:17:51;11.50;;;9.17;;
13079;SDS011;6606;49.154;9.280;2022-11-20T06:20:18;18.93;;;12.20;;
13079;SDS011;6606;49.154;9.280;2022-11-20T06:22:45;17.93;;;12.17;;
13079;SDS011;6606;49.154;9.280;2022-11-20T06:25:13;16.83;;;12.20;;
13079;SDS011;6606;49.154;9.280;2022-11-20T06:27:40;17.87;;;12.83;;
13079;SDS011;6606;49.154;9.280;2022-11-20T06:30:07;17.47;;;12.13;;
13079;SDS011;6606;49.154;9.280;2022-11-20T06:32:34;16.67;;;12.50;;
13079;SDS011;6606;49.154;9.280;2022-11-20T06:35:01;19.37;;;12.83;;
13079;SDS011;6606;49.154;9.280;2022-11-20T06:37:28;17.90;;;13.10;;
13079;SDS011;6606;49.154;9.280;2022-11-20T06:39:55;15.37;;;11.93;;
13079;SDS011;6606;49.154;9.280;2022-11-20T06:42:23;24.47;;;15.60;;
13079;SDS011;6606;49.154;9.280;2022-11-20T06:44:49;16.23;;;11.97;;
13079;SDS011;6606;49.154;9.280;2022-11-20T06:47:16;20.00;;;13.07;;
13079;SDS011;6606;49.154;9.280;2022-11-20T06:49:43;18.40;;;12.90;;
13079;SDS011;6606;49.154;9.280;2022-11-20T06:52:09;13.00;;;10.23;;
13079;SDS011;6606;49.154;9.280;2022-11-20T06:54:36;20.97;;;12.73;;
13079;SDS011;6606;49.154;9.280;2022-11-20T06:57:03;14.47;;;10.90;;
13079;SDS011;6606;49.154;9.280;2022-11-20T06:59:31;16.73;;;12.33;;
13079;SDS011;6606;49.154;9.280;2022-11-20T07:01:57;17.73;;;12.23;;
13079;SDS011;6606;49.154;9.280;2022-11-20T07:04:24;18.57;;;11.63;;
13079;SDS011;6606;49.154;9.280;2022-11-20T07:06:51;16.27;;;12.37;;
13079;SDS011;6606;49.154;9.280;2022-11-20T07:09:17;18.30;;;12.77;;
13079;SDS011;6606;49.154;9.280;2022-11-20T07:11:44;16.57;;;13.10;;
13079;SDS011;6606;49.154;9.280;2022-11-20T07:14:11;21.53;;;14.10;;
13079;SDS011;6606;49.154;9.280;2022-11-20T07:16:39;14.73;;;11.83;;
13079;SDS011;6606;49.154;9.280;2022-11-20T07:19:05;14.10;;;10.83;;
13079;SDS011;6606;49.154;9.280;2022-11-20T07:21:32;14.47;;;11.03;;
13079;SDS011;6606;49.154;9.280;2022-11-20T07:23:59;13.60;;;10.53;;
13079;SDS011;6606;49.154;9.280;2022-11-20T07:26:25;13.90;;;12.07;;
13079;SDS011;6606;49.154;9.280;2022-11-20T07:28:52;10.77;;;8.83;;
13079;SDS011;6606;49.154;9.280;2022-11-20T07:31:19;11.73;;;9.13;;
13079;SDS011;6606;49.154;9.280;2022-11-20T07:33:47;10.93;;;8.10;;
13079;SDS011;6606;49.154;9.280;2022-11-20T07:36:14;8.50;;;7.13;;
13079;SDS011;6606;49.154;9.280;2022-11-20T07:38:40;10.40;;;8.10;;
13079;SDS011;6606;49.154;9.280;2022-11-20T07:41:07;9.47;;;7.53;;
13079;SDS011;6606;49.154;9.280;2022-11-20T07:43:34;6.47;;;5.20;;
13079;SDS011;6606;49.154;9.280;2022-11-20T07:46:00;8.90;;;6.50;;
13079;SDS011;6606;49.154;9.280;2022-11-20T07:48:29;7.70;;;5.37;;
13079;SDS011;6606;49.154;9.280;2022-11-20T07:50:57;7.50;;;5.00;;
13079;SDS011;6606;49.154;9.280;2022-11-20T07:53:23;5.63;;;4.57;;
13079;SDS011;6606;49.154;9.280;2022-11-20T07:55:51;6.70;;;4.80;;
13079;SDS011;6606;49.154;9.280;2022-11-20T07:58:17;7.40;;;5.33;;
13079;SDS011;6606;49.154;9.280;2022-11-20T08:00:45;5.63;;;3.97;;
13079;SDS011;6606;49.154;9.280;2022-11-20T08:03:12;5.80;;;3.70;;
13079;SDS011;6606;49.154;9.280;2022-11-20T08:05:38;4.80;;;3.70;;
13079;SDS011;6606;49.154;9.280;2022-11-20T08:08:07;3.70;;;2.93;;
13079;SDS011;6606;49.154;9.280;2022-11-20T08:10:33;3.73;;;2.70;;
13079;SDS011;6606;49.154;9.280;2022-11-20T08:13:00;3.30;;;3.00;;
13079;SDS011;6606;49.154;9.280;2022-11-20T08:15:47;4.40;;;3.07;;
13079;SDS011;6606;49.154;9.280;2022-11-20T08:18:16;2.97;;;2.50;;
13079;SDS011;6606;49.154;9.280;2022-11-20T08:20:43;5.37;;;3.13;;
13079;SDS011;6606;49.154;9.280;2022-11-20T08:23:12;3.50;;;2.50;;
13079;SDS011;6606;49.154;9.280;2022-11-20T08:25:38;3.47;;;2.80;;
13079;SDS011;6606;49.154;9.280;2022-11-20T08:28:06;4.17;;;2.90;;
13079;SDS011;6606;49.154;9.280;2022-11-20T08:30:35;4.90;;;3.00;;
13079;SDS011;6606;49.154;9.280;2022-11-20T08:33:03;3.87;;;3.23;;
13079;SDS011;6606;49.154;9.280;2022-11-20T08:35:32;3.43;;;2.70;;
13079;SDS011;6606;49.154;9.280;2022-11-20T08:37:59;3.60;;;3.17;;
13079;SDS011;6606;49.154;9.280;2022-11-20T08:40:27;3.13;;;2.70;;
13079;SDS011;6606;49.154;9.280;2022-11-20T08:42:54;3.10;;;2.57;;
13079;SDS011;6606;49.154;9.280;2022-11-20T08:45:20;4.57;;;2.27;;
13079;SDS011;6606;49.154;9.280;2022-11-20T08:47:47;2.90;;;2.30;;
13079;SDS011;6606;49.154;9.280;2022-11-20T08:50:14;3.17;;;2.87;;
13079;SDS011;6606;49.154;9.280;2022-11-20T08:52:43;3.17;;;2.50;;
13079;SDS011;6606;49.154;9.280;2022-11-20T08:55:10;3.33;;;2.00;;
13079;SDS011;6606;49.154;9.280;2022-11-20T08:57:38;2.33;;;2.13;;
13079;SDS011;6606;49.154;9.280;2022-11-20T09:00:06;2.53;;;2.07;;
13079;SDS011;6606;49.154;9.280;2022-11-20T09:02:34;4.17;;;2.30;;
13079;SDS011;6606;49.154;9.280;2022-11-20T09:05:01;3.30;;;2.10;;
13079;SDS011;6606;49.154;9.280;2022-11-20T09:07:28;3.63;;;2.20;;
13079;SDS011;6606;49.154;9.280;2022-11-20T09:09:55;2.83;;;1.83;;
13079;SDS011;6606;49.154;9.280;2022-11-20T09:12:22;3.63;;;2.30;;
13079;SDS011;6606;49.154;9.280;2022-11-20T09:14:50;3.67;;;2.30;;
13079;SDS011;6606;49.154;9.280;2022-11-20T09:17:17;2.50;;;2.20;;
13079;SDS011;6606;49.154;9.280;2022-11-20T09:19:45;4.67;;;2.33;;
13079;SDS011;6606;49.154;9.280;2022-11-20T09:22:12;2.97;;;2.20;;
13079;SDS011;6606;49.154;9.280;2022-11-20T09:24:39;2.50;;;2.30;;
13079;SDS011;6606;49.154;9.280;2022-11-20T09:27:05;2.10;;;1.90;;
13079;SDS011;6606;49.154;9.280;2022-11-20T09:29:32;2.73;;;2.17;;
13079;SDS011;6606;49.154;9.280;2022-11-20T09:32:00;3.13;;;2.20;;
13079;SDS011;6606;49.154;9.280;2022-11-20T09:34:27;2.87;;;2.20;;
13079;SDS011;6606;49.154;9.280;2022-11-20T09:36:53;1.93;;;1.73;;
13079;SDS011;6606;49.154;9.280;2022-11-20T09:39:20;2.97;;;2.17;;
13079;SDS011;6606;49.154;9.280;2022-11-20T09:41:51;3.27;;;1.83;;
13079;SDS011;6606;49.154;9.280;2022-11-20T09:44:33;2.37;;;2.00;;
13079;SDS011;6606;49.154;9.280;2022-11-20T09:47:10;4.07;;;2.93;;
13079;SDS011;6606;49.154;9.280;2022-11-20T09:49:49;2.87;;;2.43;;
13079;SDS011;6606;49.154;9.280;2022-11-20T09:52:30;4.40;;;2.47;;
13079;SDS011;6606;49.154;9.280;2022-11-20T09:55:03;3.33;;;2.90;;
13079;SDS011;6606;49.154;9.280;2022-11-20T09:57:35;3.70;;;2.47;;
13079;SDS011;6606;49.154;9.280;2022-11-20T10:00:05;3.27;;;2.87;;
13079;SDS011;6606;49.154;9.280;2022-11-20T10:02:41;2.97;;;2.67;;
13079;SDS011;6606;49.154;9.280;2022-11-20T10:05:12;4.37;;;2.93;;
13079;SDS011;6606;49.154;9.280;2022-11-20T10:07:44;5.77;;;3.10;;
13079;SDS011;6606;49.154;9.280;2022-11-20T10:10:21;4.03;;;3.00;;
13079;SDS011;6606;49.154;9.280;2022-11-20T10:12:59;3.63;;;3.10;;
13079;SDS011;6606;49.154;9.280;2022-11-20T10:15:42;3.47;;;3.17;;
13079;SDS011;6606;49.154;9.280;2022-11-20T10:18:23;4.03;;;3.57;;
13079;SDS011;6606;49.154;9.280;2022-11-20T10:21:03;3.93;;;3.50;;
13079;SDS011;6606;49.154;9.280;2022-11-20T10:23:41;4.83;;;3.13;;
13079;SDS011;6606;49.154;9.280;2022-11-20T10:26:17;3.93;;;3.33;;
13079;SDS011;6606;49.154;9.280;2022-11-20T10:29:01;5.03;;;3.70;;
13079;SDS011;6606;49.154;9.280;2022-11-20T10:31:37;3.57;;;2.80;;
13079;SDS011;6606;49.154;9.280;2022-11-20T10:34:08;3.63;;;2.60;;
13079;SDS011;6606;49.154;9.280;2022-11-20T10:36:46;2.70;;;2.40;;
13079;SDS011;6606;49.154;9.280;2022-11-20T10:39:21;3.13;;;2.40;;
13079;SDS011;6606;49.154;9.280;2022-11-20T10:41:53;2.57;;;2.00;;
13079;SDS011;6606;49.154;9.280;2022-11-20T10:44:20;3.43;;;2.37;;
13079;SDS011;6606;49.154;9.280;2022-11-20T10:47:03;2.77;;;2.20;;
13079;SDS011;6606;49.154;9.280;2022-11-20T10:49:32;3.40;;;2.10;;
13079;SDS011;6606;49.154;9.280;2022-11-20T10:52:03;3.03;;;2.63;;
13079;SDS011;6606;49.154;9.280;2022-11-20T10:54:37;2.30;;;2.10;;
13079;SDS011;6606;49.154;9.280;2022-11-20T10:57:14;4.17;;;2.33;;
13079;SDS011;6606;49.154;9.280;2022-11-20T10:59:55;2.63;;;2.40;;
13079;SDS011;6606;49.154;9.280;2022-11-20T11:02:32;2.77;;;2.30;;
13079;SDS011;6606;49.154;9.280;2022-11-20T11:05:10;2.90;;;2.60;;
13079;SDS011;6606;49.154;9.280;2022-11-20T11:07:42;3.70;;;2.80;;
13079;SDS011;6606;49.154;9.280;2022-11-20T11:10:14;5.40;;;2.30;;
13079;SDS011;6606;49.154;9.280;2022-11-20T11:12:43;2.97;;;2.40;;
13079;SDS011;6606;49.154;9.280;2022-11-20T11:15:12;2.93;;;2.50;;
13079;SDS011;6606;49.154;9.280;2022-11-20T11:17:45;2.73;;;2.50;;
13079;SDS011;6606;49.154;9.280;2022-11-20T11:20:18;3.87;;;2.40;;
13079;SDS011;6606;49.154;9.280;2022-11-20T11:22:46;4.00;;;2.37;;
13079;SDS011;6606;49.154;9.280;2022-11-20T11:25:22;3.57;;;2.77;;
13079;SDS011;6606;49.154;9.280;2022-11-20T11:27:52;5.10;;;2.90;;
13079;SDS011;6606;49.154;9.280;2022-11-20T11:30:22;3.27;;;2.10;;
13079;SDS011;6606;49.154;9.280;2022-11-20T11:32:50;4.13;;;2.30;;
13079;SDS011;6606;49.154;9.280;2022-11-20T11:35:29;3.37;;;2.40;;
13079;SDS011;6606;49.154;9.280;2022-11-20T11:38:02;4.97;;;2.63;;
13079;SDS011;6606;49.154;9.280;2022-11-20T11:40:31;4.07;;;2.43;;
13079;SDS011;6606;49.154;9.280;2022-11-20T11:42:59;3.83;;;2.90;;
13079;SDS011;6606;49.154;9.280;2022-11-20T11:45:28;4.63;;;2.87;;
13079;SDS011;6606;49.154;9.280;2022-11-20T11:47:55;5.00;;;3.20;;
13079;SDS011;6606;49.154;9.280;2022-11-20T11:50:24;4.03;;;3.10;;
13079;SDS011;6606;49.154;9.280;2022-11-20T11:53:02;5.30;;;3.17;;
13079;SDS011;6606;49.154;9.280;2022-11-20T11:55:36;5.47;;;3.50;;
13079;SDS011;6606;49.154;9.280;2022-11-20T11:58:14;5.10;;;3.40;;
13079;SDS011;6606;49.154;9.280;2022-11-20T12:00:49;4.60;;;3.40;;
13079;SDS011;6606;49.154;9.280;2022-11-20T12:03:21;4.47;;;3.50;;
13079;SDS011;6606;49.154;9.280;2022-11-20T12:05:55;4.70;;;2.90;;
13079;SDS011;6606;49.154;9.280;2022-11-20T12:08:27;5.80;;;3.40;;
13079;SDS011;6606;49.154;9.280;2022-11-20T12:11:00;5.20;;;3.30;;
13079;SDS011;6606;49.154;9.280;2022-11-20T12:13:34;6.63;;;3.37;;
13079;SDS011;6606;49.154;9.280;2022-11-20T12:16:09;7.97;;;4.20;;
13079;SDS011;6606;49.154;9.280;2022-11-20T12:18:39;3.37;;;2.87;;
13079;SDS011;6606;49.154;9.280;2022-11-20T12:21:11;4.63;;;2.87;;
13079;SDS011;6606;49.154;9.280;2022-11-20T12:23:51;6.43;;;2.87;;
13079;SDS011;6606;49.154;9.280;2022-11-20T12:26:34;5.07;;;2.57;;
13079;SDS011;6606;49.154;9.280;2022-11-20T12:29:13;3.87;;;2.30;;
13079;SDS011;6606;49.154;9.280;2022-11-20T12:31:52;6.77;;;2.33;;
13079;SDS011;6606;49.154;9.280;2022-11-20T12:34:35;4.10;;;2.30;;
13079;SDS011;6606;49.154;9.280;2022-11-20T12:37:17;8.30;;;2.87;;
13079;SDS011;6606;49.154;9.280;2022-11-20T12:39:58;4.80;;;2.20;;
13079;SDS011;6606;49.154;9.280;2022-11-20T12:42:44;5.87;;;2.30;;
13079;SDS011;6606;49.154;9.280;2022-11-20T12:45:46;5.20;;;2.50;;
13079;SDS011;6606;49.154;9.280;2022-11-20T12:48:26;6.23;;;2.63;;
13079;SDS011;6606;49.154;9.280;2022-11-20T12:51:12;5.93;;;2.40;;
13079;SDS011;6606;49.154;9.280;2022-11-20T12:53:59;4.10;;;2.47;;
13079;SDS011;6606;49.154;9.280;2022-11-20T12:56:46;7.17;;;2.60;;
13079;SDS011;6606;49.154;9.280;2022-11-20T12:59:24;3.57;;;2.43;;
13079;SDS011;6606;49.154;9.280;2022-11-20T13:02:02;3.73;;;2.60;;
13079;SDS011;6606;49.154;9.280;2022-11-20T13:07:41;7.80;;;2.50;;
13079;SDS011;6606;49.154;9.280;2022-11-20T13:10:13;4.43;;;2.40;;
13079;SDS011;6606;49.154;9.280;2022-11-20T13:12:45;5.63;;;2.67;;
13079;SDS011;6606;49.154;9.280;2022-11-20T13:15:18;5.63;;;2.90;;
13079;SDS011;6606;49.154;9.280;2022-11-20T13:18:00;4.90;;;2.70;;
13079;SDS011;6606;49.154;9.280;2022-11-20T13:20:28;5.20;;;2.57;;
13079;SDS011;6606;49.154;9.280;2022-11-20T13:22:56;7.30;;;2.60;;
13079;SDS011;6606;49.154;9.280;2022-11-20T13:25:24;3.73;;;2.10;;
13079;SDS011;6606;49.154;9.280;2022-11-20T13:27:53;6.07;;;2.30;;
13079;SDS011;6606;49.154;9.280;2022-11-20T13:30:21;7.47;;;2.40;;
13079;SDS011;6606;49.154;9.280;2022-11-20T13:32:50;3.53;;;2.00;;
13079;SDS011;6606;49.154;9.280;2022-11-20T13:35:27;4.03;;;1.90;;
13079;SDS011;6606;49.154;9.280;2022-11-20T13:37:59;3.87;;;2.00;;
13079;SDS011;6606;49.154;9.280;2022-11-20T13:40:31;2.83;;;1.73;;
13079;SDS011;6606;49.154;9.280;2022-11-20T13:43:04;3.63;;;1.90;;
13079;SDS011;6606;49.154;9.280;2022-11-20T13:45:41;3.87;;;2.10;;
13079;SDS011;6606;49.154;9.280;2022-11-20T13:48:18;5.20;;;1.80;;
13079;SDS011;6606;49.154;9.280;2022-11-20T13:50:49;4.23;;;2.20;;
13079;SDS011;6606;49.154;9.280;2022-11-20T13:53:28;4.40;;;2.13;;
13079;SDS011;6606;49.154;9.280;2022-11-20T13:56:05;3.23;;;1.90;;
13079;SDS011;6606;49.154;9.280;2022-11-20T13:58:42;4.83;;;2.27;;
13079;SDS011;6606;49.154;9.280;2022-11-20T14:01:15;6.23;;;1.97;;
13079;SDS011;6606;49.154;9.280;2022-11-20T14:03:46;4.03;;;1.80;;
13079;SDS011;6606;49.154;9.280;2022-11-20T14:06:14;4.13;;;1.93;;
13079;SDS011;6606;49.154;9.280;2022-11-20T14:08:49;6.60;;;2.03;;
13079;SDS011;6606;49.154;9.280;2022-11-20T14:11:17;5.40;;;1.80;;
13079;SDS011;6606;49.154;9.280;2022-11-20T14:13:57;2.80;;;1.60;;
13079;SDS011;6606;49.154;9.280;2022-11-20T14:16:26;5.73;;;1.70;;
13079;SDS011;6606;49.154;9.280;2022-11-20T14:18:54;6.20;;;1.70;;
13079;SDS011;6606;49.154;9.280;2022-11-20T14:21:23;4.40;;;1.73;;
13079;SDS011;6606;49.154;9.280;2022-11-20T14:24:02;4.23;;;1.60;;
13079;SDS011;6606;49.154;9.280;2022-11-20T14:26:30;3.23;;;1.50;;
13079;SDS011;6606;49.154;9.280;2022-11-20T14:28:59;4.03;;;1.40;;
13079;SDS011;6606;49.154;9.280;2022-11-20T14:31:26;4.57;;;1.60;;
13079;SDS011;6606;49.154;9.280;2022-11-20T14:33:54;4.43;;;1.40;;
13079;SDS011;6606;49.154;9.280;2022-11-20T14:36:22;2.77;;;1.37;;
13079;SDS011;6606;49.154;9.280;2022-11-20T14:38:50;3.10;;;1.30;;
13079;SDS011;6606;49.154;9.280;2022-11-20T14:41:18;4.27;;;1.30;;
13079;SDS011;6606;49.154;9.280;2022-11-20T14:43:47;3.27;;;1.23;;
13079;SDS011;6606;49.154;9.280;2022-11-20T14:46:21;3.97;;;1.53;;
13079;SDS011;6606;49.154;9.280;2022-11-20T14:48:49;5.17;;;1.63;;
13079;SDS011;6606;49.154;9.280;2022-11-20T14:51:30;2.40;;;1.37;;
13079;SDS011;6606;49.154;9.280;2022-11-20T14:54:07;5.30;;;1.87;;
13079;SDS011;6606;49.154;9.280;2022-11-20T14:56:36;7.33;;;2.87;;
13079;SDS011;6606;49.154;9.280;2022-11-20T14:59:03;3.07;;;1.40;;
13079;SDS011;6606;49.154;9.280;2022-11-20T15:01:32;9.37;;;2.80;;
13079;SDS011;6606;49.154;9.280;2022-11-20T15:04:00;2.47;;;1.40;;
13079;SDS011;6606;49.154;9.280;2022-11-20T15:06:28;3.30;;;1.60;;
13079;SDS011;6606;49.154;9.280;2022-11-20T15:08:56;2.77;;;1.20;;
13079;SDS011;6606;49.154;9.280;2022-11-20T15:11:25;2.60;;;1.20;;